Terminal Aerodrome Forecast
Issued by NWS

Home | Current Version | Previous Version | Text Only | Print | Product List | Glossary On
Versions: 1 2 3 4 5 6 7 8 9 10 11 12 13 14 15 16 17 18 19 20 21 22
000
FTUS43 KGRB 152300 RRA
TAFMTW
TAF
KMTW 152340Z 1600/1624 16007KT 1/4SM FG VV002
      TEMPO 1602/1606 1/2SM -RA FG OVC002
     FM160600 05005KT 1SM -RA BR OVC004
     FM161400 35012KT 2SM -RASN BR OVC007
     FM162100 33016KT 6SM BR OVC015 PROB30 1621/1624 5SM -SN BR
      OVC010=

USA.gov is the U.S. government's official web portal to all federal, state and local government web resources and services.